createdAt,value
2022-09-01T00:00:11.994Z,51.211952
2022-09-01T00:01:12.007Z,51.212063
2022-09-01T00:02:12.041Z,51.212082
2022-09-01T00:03:11.971Z,51.212120
2022-09-01T00:04:11.995Z,51.212219
2022-09-01T00:05:12.002Z,51.212173
2022-09-01T00:06:11.963Z,51.212185
2022-09-01T00:07:11.967Z,51.212170
2022-09-01T00:08:12.018Z,51.212177
2022-09-01T00:09:12.967Z,51.212162
2022-09-01T00:10:12.036Z,51.212151
2022-09-01T00:11:11.943Z,51.212147
2022-09-01T00:12:11.974Z,51.212139
2022-09-01T00:13:11.940Z,51.212147
2022-09-01T00:14:30.896Z,51.212147
2022-09-01T00:15:12.898Z,51.212112
2022-09-01T00:16:11.994Z,51.212082
2022-09-01T00:17:11.906Z,51.212105
2022-09-01T00:18:11.940Z,51.212090
2022-09-01T00:19:11.870Z,51.212116
2022-09-01T00:20:11.884Z,51.212040
2022-09-01T00:21:11.862Z,51.211899
2022-09-01T00:22:11.889Z,51.212009
2022-09-01T00:23:11.851Z,51.212055
2022-09-01T00:24:11.910Z,51.212055
2022-09-01T00:25:11.831Z,51.212177
2022-09-01T00:26:11.844Z,51.212162
2022-09-01T00:27:11.826Z,51.212154
2022-09-01T00:28:11.869Z,51.212139
2022-09-01T00:29:11.827Z,51.212070
2022-09-01T00:30:11.808Z,51.212112
2022-09-01T00:31:11.927Z,51.212196
2022-09-01T00:32:11.823Z,51.212242
2022-09-01T00:33:11.827Z,51.212276
2022-09-01T00:34:11.810Z,51.212223
2022-09-01T00:35:11.787Z,51.212189
2022-09-01T00:36:11.763Z,51.212173
2022-09-01T00:37:11.838Z,51.212193
2022-09-01T00:38:11.821Z,51.212215
2022-09-01T00:39:11.775Z,51.212227
2022-09-01T00:40:11.779Z,51.212269
2022-09-01T00:41:11.744Z,51.212330
2022-09-01T00:42:11.738Z,51.212200
2022-09-01T00:43:11.730Z,51.212132
2022-09-01T00:44:11.720Z,51.212097
2022-09-01T00:45:11.742Z,51.212139
2022-09-01T00:46:11.743Z,51.212086
2022-09-01T00:47:11.718Z,51.212040
2022-09-01T00:48:11.737Z,51.212109
2022-09-01T00:49:11.687Z,51.212166
2022-09-01T00:50:11.666Z,51.212135
2022-09-01T00:51:11.694Z,51.212120
2022-09-01T00:52:11.680Z,51.212116
2022-09-01T00:53:11.686Z,51.212147
2022-09-01T00:54:11.647Z,51.212254
2022-09-01T00:55:11.682Z,51.212151
2022-09-01T00:56:11.639Z,51.212109
2022-09-01T00:57:11.654Z,51.212036
2022-09-01T00:58:19.684Z,51.212025
2022-09-01T00:59:12.618Z,51.212059
2022-09-01T01:00:11.704Z,51.212116
2022-09-01T01:01:11.705Z,51.212147
2022-09-01T01:02:11.691Z,51.212120
2022-09-01T01:03:12.607Z,51.212181
2022-09-01T01:04:11.569Z,51.212238
2022-09-01T01:05:14.351Z,51.211998
2022-09-01T01:06:11.563Z,51.212051
2022-09-01T01:07:11.550Z,51.212078
2022-09-01T01:08:11.665Z,51.212063
2022-09-01T01:09:11.534Z,51.212082
2022-09-01T01:10:11.554Z,51.212067
2022-09-01T01:11:11.521Z,51.212120
2022-09-01T01:12:11.558Z,51.212185
2022-09-01T01:13:11.530Z,51.212063
2022-09-01T01:14:11.504Z,51.212189
2022-09-01T01:15:11.509Z,51.212219
2022-09-01T01:16:11.594Z,51.212120
2022-09-01T01:17:11.507Z,51.212074
2022-09-01T01:18:11.479Z,51.212067
2022-09-01T01:19:11.509Z,51.212158
2022-09-01T01:20:11.475Z,51.212090
2022-09-01T01:21:11.462Z,51.212112
2022-09-01T01:22:11.494Z,51.212112
2022-09-01T01:23:11.451Z,51.212173
2022-09-01T01:24:11.456Z,51.212109
2022-09-01T01:25:11.430Z,51.212147
2022-09-01T01:26:11.454Z,51.212219
2022-09-01T01:27:11.421Z,51.212101
2022-09-01T01:28:11.496Z,51.212090
2022-09-01T01:29:11.420Z,51.212059
2022-09-01T01:30:11.406Z,51.211983
2022-09-01T01:31:11.433Z,51.212120
2022-09-01T01:32:11.434Z,51.212135
2022-09-01T01:33:12.422Z,51.212078
2022-09-01T01:34:11.409Z,51.212002
2022-09-01T01:35:11.362Z,51.212063
2022-09-01T01:36:11.370Z,51.212185
2022-09-01T01:37:11.358Z,51.212250
2022-09-01T01:38:11.356Z,51.212261
2022-09-01T01:39:11.332Z,51.212204
2022-09-01T01:40:11.344Z,51.212162
2022-09-01T01:41:11.353Z,51.211983
2022-09-01T01:42:11.341Z,51.211948
2022-09-01T01:43:11.306Z,51.212017
2022-09-01T01:44:11.331Z,51.211910
2022-09-01T01:45:11.281Z,51.212048
2022-09-01T01:46:11.384Z,51.212032
2022-09-01T01:47:11.270Z,51.212059
2022-09-01T01:48:11.292Z,51.211990
2022-09-01T01:49:11.257Z,51.212040
2022-09-01T01:50:11.302Z,51.212067
2022-09-01T01:51:11.242Z,51.212021
2022-09-01T01:52:11.245Z,51.212013
2022-09-01T01:53:11.771Z,51.211922
2022-09-01T01:54:11.217Z,51.212208
2022-09-01T01:55:11.217Z,51.212208
2022-09-01T01:56:11.205Z,51.212170
2022-09-01T01:57:11.245Z,51.212181
2022-09-01T01:58:11.236Z,51.212151
2022-09-01T01:59:11.226Z,51.212082
2022-09-01T02:00:11.174Z,51.212170
2022-09-01T02:01:11.255Z,51.212193
2022-09-01T02:02:11.212Z,51.212154
2022-09-01T02:03:11.161Z,51.212139
2022-09-01T02:04:11.179Z,51.212177
2022-09-01T02:05:11.142Z,51.212170
2022-09-01T02:06:11.158Z,51.212120
2022-09-01T02:07:11.125Z,51.212154
2022-09-01T02:08:11.128Z,51.212181
2022-09-01T02:09:11.144Z,51.212170
2022-09-01T02:10:11.105Z,51.212196
2022-09-01T02:11:11.109Z,51.212196
2022-09-01T02:12:11.097Z,51.212173
2022-09-01T02:13:11.103Z,51.212231
2022-09-01T02:14:11.089Z,51.212196
2022-09-01T02:15:11.097Z,51.212162
2022-09-01T02:16:11.082Z,51.212154
2022-09-01T02:17:11.101Z,51.212170
2022-09-01T02:18:11.060Z,51.212254
2022-09-01T02:19:11.081Z,51.212204
2022-09-01T02:20:11.037Z,51.212257
2022-09-01T02:21:15.135Z,51.212181
2022-09-01T02:22:13.021Z,51.212189
2022-09-01T02:23:11.014Z,51.212154
2022-09-01T02:24:11.077Z,51.212124
2022-09-01T02:25:11.001Z,51.212166
2022-09-01T02:26:18.265Z,51.212135
2022-09-01T02:27:12.993Z,51.211983
2022-09-01T02:28:10.977Z,51.212090
2022-09-01T02:29:10.969Z,51.212139
2022-09-01T02:30:10.981Z,51.212112
2022-09-01T02:31:11.008Z,51.212116
2022-09-01T02:32:10.971Z,51.212219
2022-09-01T02:33:10.949Z,51.212273
2022-09-01T02:34:10.993Z,51.211964
2022-09-01T02:35:10.961Z,51.211983
2022-09-01T02:36:10.916Z,51.212025
2022-09-01T02:37:10.964Z,51.212002
2022-09-01T02:38:10.905Z,51.211941
2022-09-01T02:39:10.929Z,51.212067
2022-09-01T02:40:10.960Z,51.212063
2022-09-01T02:41:10.942Z,51.211990
2022-09-01T02:42:10.873Z,51.211926
2022-09-01T02:43:10.861Z,51.211861
2022-09-01T02:44:10.900Z,51.211742
2022-09-01T02:45:10.856Z,51.211834
2022-09-01T02:46:11.004Z,51.211960
2022-09-01T02:47:10.850Z,51.212196
2022-09-01T02:48:10.833Z,51.212006
2022-09-01T02:49:10.845Z,51.211933
2022-09-01T02:50:10.821Z,51.212006
2022-09-01T02:51:10.816Z,51.212006
2022-09-01T02:52:10.813Z,51.211933
2022-09-01T02:53:10.824Z,51.212299
2022-09-01T02:54:10.793Z,51.212158
2022-09-01T02:55:10.801Z,51.212170
2022-09-01T02:56:10.833Z,51.212193
2022-09-01T02:57:10.821Z,51.212059
2022-09-01T02:58:10.761Z,51.212059
2022-09-01T02:59:10.792Z,51.212006
2022-09-01T03:00:10.753Z,51.212002
2022-09-01T03:01:10.811Z,51.212101
2022-09-01T03:02:10.738Z,51.212109
2022-09-01T03:03:10.741Z,51.211998
2022-09-01T03:04:10.736Z,51.212120
2022-09-01T03:05:10.787Z,51.212154
2022-09-01T03:06:10.732Z,51.212177
2022-09-01T03:07:10.704Z,51.212143
2022-09-01T03:08:10.717Z,51.212170
2022-09-01T03:09:11.320Z,51.211994
2022-09-01T03:10:10.685Z,51.212044
2022-09-01T03:11:13.058Z,51.212173
2022-09-01T03:12:11.678Z,51.212074
2022-09-01T03:13:10.660Z,51.212070
2022-09-01T03:14:10.692Z,51.212090
2022-09-01T03:15:10.653Z,51.212013
2022-09-01T03:16:10.700Z,51.212059
2022-09-01T03:17:10.644Z,51.212048
2022-09-01T03:18:10.641Z,51.212101
2022-09-01T03:19:10.712Z,51.211952
2022-09-01T03:20:10.623Z,51.211994
2022-09-01T03:21:10.614Z,51.211994
2022-09-01T03:22:10.654Z,51.212181
2022-09-01T03:23:10.640Z,51.212070
2022-09-01T03:24:10.614Z,51.212116
2022-09-01T03:25:10.600Z,51.212063
2022-09-01T03:26:10.584Z,51.211945
2022-09-01T03:27:10.601Z,51.212021
2022-09-01T03:28:10.588Z,51.212059
2022-09-01T03:29:10.612Z,51.212063
2022-09-01T03:30:10.569Z,51.212120
2022-09-01T03:31:10.580Z,51.211998
2022-09-01T03:32:10.624Z,51.212025
2022-09-01T03:33:10.632Z,51.212074
2022-09-01T03:34:10.557Z,51.212051
2022-09-01T03:35:10.528Z,51.212025
2022-09-01T03:36:14.703Z,51.211971
2022-09-01T03:37:10.541Z,51.212097
2022-09-01T03:38:10.521Z,51.212124
2022-09-01T03:39:13.403Z,51.212112
2022-09-01T03:40:12.538Z,51.212093
2022-09-01T03:41:10.538Z,51.212055
2022-09-01T03:42:10.510Z,51.212055
2022-09-01T03:43:10.509Z,51.212093
2022-09-01T03:44:10.508Z,51.212070
2022-09-01T03:45:10.471Z,51.212070
2022-09-01T03:46:10.515Z,51.212051
2022-09-01T03:47:10.462Z,51.212158
2022-09-01T03:48:10.491Z,51.211967
2022-09-01T03:49:10.454Z,51.212154
2022-09-01T03:50:10.520Z,51.212048
2022-09-01T03:51:10.442Z,51.212082
2022-09-01T03:52:10.435Z,51.211975
2022-09-01T03:53:10.444Z,51.212040
2022-09-01T03:54:10.423Z,51.212082
2022-09-01T03:55:10.438Z,51.212036
2022-09-01T03:56:10.418Z,51.212029
2022-09-01T03:57:10.394Z,51.211952
2022-09-01T03:58:10.410Z,51.212051
2022-09-01T03:59:10.400Z,51.211998
2022-09-01T04:00:10.418Z,51.212013
2022-09-01T04:01:13.775Z,51.212132
2022-09-01T04:02:10.421Z,51.212101
2022-09-01T04:03:10.367Z,51.212132
2022-09-01T04:04:10.360Z,51.212139
2022-09-01T04:05:10.373Z,51.212196
2022-09-01T04:06:10.374Z,51.212189
2022-09-01T04:07:10.364Z,51.212170
2022-09-01T04:08:11.353Z,51.212147
2022-09-01T04:09:10.352Z,51.211971
2022-09-01T04:10:10.336Z,51.211823
2022-09-01T04:11:10.370Z,51.211903
2022-09-01T04:12:10.318Z,51.212017
2022-09-01T04:13:10.353Z,51.212082
2022-09-01T04:14:10.351Z,51.212204
2022-09-01T04:15:10.305Z,51.212040
2022-09-01T04:16:10.447Z,51.212143
2022-09-01T04:17:10.300Z,51.212170
2022-09-01T04:18:10.279Z,51.212128
2022-09-01T04:19:10.279Z,51.212337
2022-09-01T04:20:10.273Z,51.212116
2022-09-01T04:21:10.255Z,51.211998
2022-09-01T04:22:10.338Z,51.212208
2022-09-01T04:23:10.256Z,51.211830
2022-09-01T04:24:10.236Z,51.211975
2022-09-01T04:25:10.241Z,51.212063
2022-09-01T04:26:10.237Z,51.211967
2022-09-01T04:27:10.247Z,51.212017
2022-09-01T04:28:10.208Z,51.212109
2022-09-01T04:29:10.248Z,51.212296
2022-09-01T04:30:10.212Z,51.212170
2022-09-01T04:31:10.187Z,51.211910
2022-09-01T04:32:10.232Z,51.211990
2022-09-01T04:33:10.185Z,51.211941
2022-09-01T04:34:10.180Z,51.212212
2022-09-01T04:35:10.201Z,51.212311
2022-09-01T04:36:10.160Z,51.211987
2022-09-01T04:37:10.181Z,51.211983
2022-09-01T04:38:10.172Z,51.211903
2022-09-01T04:39:10.148Z,51.211731
2022-09-01T04:40:10.186Z,51.212101
2022-09-01T04:41:10.120Z,51.212090
2022-09-01T04:42:10.129Z,51.212151
2022-09-01T04:43:10.137Z,51.212009
2022-09-01T04:44:10.177Z,51.211555
2022-09-01T04:45:11.083Z,51.211964
2022-09-01T04:46:10.142Z,51.212013
2022-09-01T04:47:10.092Z,51.212059
2022-09-01T04:48:10.092Z,51.212101
2022-09-01T04:49:10.288Z,51.211578
2022-09-01T04:50:10.077Z,51.211819
2022-09-01T04:51:10.131Z,51.211777
2022-09-01T04:52:10.060Z,51.211533
2022-09-01T04:53:10.132Z,51.211861
2022-09-01T04:54:10.069Z,51.211861
2022-09-01T04:55:10.058Z,51.211823
2022-09-01T04:56:10.101Z,51.211498
2022-09-01T04:57:10.029Z,51.211563
2022-09-01T04:58:10.417Z,51.211880
2022-09-01T04:59:11.042Z,51.212025
2022-09-01T05:00:10.026Z,51.211998
2022-09-01T05:01:10.076Z,51.212105
2022-09-01T05:02:10.042Z,51.212143
2022-09-01T05:03:10.043Z,51.212055
2022-09-01T05:04:10.041Z,51.212128
2022-09-01T05:05:09.981Z,51.212086
2022-09-01T05:06:09.974Z,51.211945
2022-09-01T05:07:09.974Z,51.212032
2022-09-01T05:08:10.009Z,51.212128
2022-09-01T05:09:09.993Z,51.212112
2022-09-01T05:10:09.957Z,51.212063
2022-09-01T05:11:09.999Z,51.212025
2022-09-01T05:12:09.937Z,51.212067
2022-09-01T05:13:10.949Z,51.212055
2022-09-01T05:14:09.983Z,51.212074
2022-09-01T05:15:09.914Z,51.211937
2022-09-01T05:16:09.992Z,51.211998
2022-09-01T05:17:09.914Z,51.212147
2022-09-01T05:18:09.944Z,51.212017
2022-09-01T05:19:09.969Z,51.212048
2022-09-01T05:20:09.985Z,51.212051
2022-09-01T05:21:09.991Z,51.212147
2022-09-01T05:22:09.942Z,51.212086
2022-09-01T05:23:10.283Z,51.212067
2022-09-01T05:24:10.858Z,51.212059
2022-09-01T05:25:09.889Z,51.212074
2022-09-01T05:26:09.848Z,51.212097
2022-09-01T05:27:09.825Z,51.212132
2022-09-01T05:28:10.844Z,51.212097
2022-09-01T05:29:09.857Z,51.212128
2022-09-01T05:30:09.821Z,51.212151
2022-09-01T05:31:09.874Z,51.212208
2022-09-01T05:32:09.800Z,51.212215
2022-09-01T05:33:09.813Z,51.212112
2022-09-01T05:34:10.263Z,51.212177
2022-09-01T05:35:09.798Z,51.212196
2022-09-01T05:36:09.782Z,51.212162
2022-09-01T05:37:09.847Z,51.212120
2022-09-01T05:38:09.804Z,51.212196
2022-09-01T05:39:09.855Z,51.212173
2022-09-01T05:40:09.880Z,51.212189
2022-09-01T05:41:09.762Z,51.212002
2022-09-01T05:42:09.837Z,51.212158
2022-09-01T05:43:09.827Z,51.212303
2022-09-01T05:44:09.733Z,51.212059
2022-09-01T05:45:09.711Z,51.212097
2022-09-01T05:46:09.723Z,51.212154
2022-09-01T05:47:09.721Z,51.212143
2022-09-01T05:48:11.286Z,51.212147
2022-09-01T05:49:09.706Z,51.212063
2022-09-01T05:50:13.644Z,51.212093
2022-09-01T05:51:27.358Z,51.212109
2022-09-01T05:52:11.694Z,51.212097
2022-09-01T05:53:12.840Z,51.212109
2022-09-01T05:54:09.681Z,51.212078
2022-09-01T05:55:09.700Z,51.212078
2022-09-01T05:56:09.650Z,51.212093
2022-09-01T05:57:32.804Z,51.212112
2022-09-01T05:58:11.710Z,51.212097
2022-09-01T05:59:26.019Z,51.212124
2022-09-01T06:00:11.624Z,51.212196
2022-09-01T06:01:09.628Z,51.212166
2022-09-01T06:02:09.714Z,51.212135
2022-09-01T06:03:09.738Z,51.212189
2022-09-01T06:04:10.592Z,51.212204
2022-09-01T06:05:09.579Z,51.212200
2022-09-01T06:06:09.563Z,51.212254
2022-09-01T06:07:11.836Z,51.212223
2022-09-01T06:08:11.554Z,51.212238
2022-09-01T06:09:09.575Z,51.212276
2022-09-01T06:10:09.544Z,51.212261
2022-09-01T06:11:09.533Z,51.212227
2022-09-01T06:12:09.534Z,51.212193
2022-09-01T06:13:09.507Z,51.212200
2022-09-01T06:14:09.501Z,51.212173
2022-09-01T06:15:09.526Z,51.212193
2022-09-01T06:16:09.528Z,51.212181
2022-09-01T06:17:09.502Z,51.212196
2022-09-01T06:18:09.546Z,51.212185
2022-09-01T06:19:09.470Z,51.212238
2022-09-01T06:20:09.485Z,51.212154
2022-09-01T06:21:09.478Z,51.212200
2022-09-01T06:22:09.451Z,51.212132
2022-09-01T06:23:09.456Z,51.212147
2022-09-01T06:24:09.466Z,51.212154
2022-09-01T06:25:09.445Z,51.212177
2022-09-01T06:26:09.454Z,51.212139
2022-09-01T06:27:09.458Z,51.212135
2022-09-01T06:28:09.735Z,51.212124
2022-09-01T06:29:09.414Z,51.212185
2022-09-01T06:30:09.415Z,51.212173
2022-09-01T06:31:09.578Z,51.212200
2022-09-01T06:32:09.387Z,51.212212
2022-09-01T06:33:09.427Z,51.212128
2022-09-01T06:34:09.408Z,51.212177
2022-09-01T06:35:09.387Z,51.212193
2022-09-01T06:36:09.356Z,51.212250
2022-09-01T06:37:09.364Z,51.212223
2022-09-01T06:38:09.358Z,51.212105
2022-09-01T06:39:09.373Z,51.212227
2022-09-01T06:40:09.413Z,51.212147
2022-09-01T06:41:09.581Z,51.212219
2022-09-01T06:42:09.334Z,51.212151
2022-09-01T06:43:09.342Z,51.212246
2022-09-01T06:44:14.322Z,51.212139
2022-09-01T06:45:11.299Z,51.212227
2022-09-01T06:46:09.358Z,51.212189
2022-09-01T06:47:09.324Z,51.212231
2022-09-01T06:48:09.299Z,51.212250
2022-09-01T06:49:09.338Z,51.212227
2022-09-01T06:50:09.275Z,51.212166
2022-09-01T06:51:18.335Z,51.212158
2022-09-01T06:52:11.278Z,51.212254
2022-09-01T06:54:14.611Z,51.212154
2022-09-01T06:55:10.233Z,51.212185
2022-09-01T06:56:09.250Z,51.212193
2022-09-01T06:58:13.931Z,51.212208
2022-09-01T06:59:09.222Z,51.212189
2022-09-01T07:00:09.237Z,51.212181
2022-09-01T07:01:09.222Z,51.212181
2022-09-01T07:02:13.946Z,51.212185
2022-09-01T07:03:11.183Z,51.212193
2022-09-01T07:04:12.839Z,51.212128
2022-09-01T07:05:59.707Z,51.212185
2022-09-01T07:06:58.706Z,51.212193
2022-09-01T07:08:11.147Z,51.212208
2022-09-01T07:09:38.641Z,51.212231
2022-09-01T07:10:21.185Z,51.212193
2022-09-01T07:12:26.781Z,51.212189
2022-09-01T07:13:11.141Z,51.212200
2022-09-01T07:14:16.216Z,51.212196
2022-09-01T07:17:26.362Z,51.212147
2022-09-01T07:18:11.125Z,51.212170
2022-09-01T07:19:09.085Z,51.212208
2022-09-01T07:20:25.875Z,51.212193
2022-09-01T07:21:38.820Z,51.212116
2022-09-01T07:22:35.298Z,51.212154
2022-09-01T07:23:10.077Z,51.212078
2022-09-01T07:24:10.479Z,51.212120
2022-09-01T07:25:12.123Z,51.212132
2022-09-01T07:26:10.072Z,51.212044
2022-09-01T07:27:09.267Z,51.212025
2022-09-01T07:28:09.021Z,51.212036
2022-09-01T07:29:09.068Z,51.211697
2022-09-01T07:30:09.036Z,51.211803
2022-09-01T07:34:40.139Z,51.212029
2022-09-01T07:36:25.815Z,51.211979
2022-09-01T07:38:47.244Z,51.211960
2022-09-01T07:43:10.915Z,51.211887
2022-09-01T07:44:08.903Z,51.211956
2022-09-01T07:48:10.919Z,51.211937
2022-09-01T07:50:25.411Z,51.211876
2022-09-01T07:52:10.867Z,51.211853
2022-09-01T07:53:08.859Z,51.211956
2022-09-01T07:54:08.849Z,51.212025
2022-09-01T07:55:08.841Z,51.212051
2022-09-01T07:56:08.837Z,51.212074
2022-09-01T07:57:08.829Z,51.212120
2022-09-01T07:58:08.854Z,51.212055
2022-09-01T07:59:08.848Z,51.212044
2022-09-01T08:00:08.801Z,51.212013
2022-09-01T08:01:08.825Z,51.212132
2022-09-01T08:02:08.829Z,51.212292
2022-09-01T08:03:08.825Z,51.212219
2022-09-01T08:04:08.778Z,51.212101
2022-09-01T08:05:08.774Z,51.212193
2022-09-01T08:06:08.803Z,51.212116
2022-09-01T08:07:08.746Z,51.212177
2022-09-01T08:08:28.670Z,51.212208
2022-09-01T08:09:11.628Z,51.212082
2022-09-01T08:10:08.729Z,51.212158
2022-09-01T08:11:09.753Z,51.212051
2022-09-01T08:12:08.755Z,51.212154
2022-09-01T08:13:15.350Z,51.212097
2022-09-01T08:14:10.445Z,51.212044
2022-09-01T08:16:18.444Z,51.212257
2022-09-01T08:17:18.121Z,51.212185
2022-09-01T08:18:14.178Z,51.212212
2022-09-01T08:19:16.633Z,51.212212
2022-09-01T08:20:14.107Z,51.212147
2022-09-01T08:21:08.651Z,51.212204
2022-09-01T08:22:08.803Z,51.212120
2022-09-01T08:23:08.699Z,51.212070
2022-09-01T08:24:08.690Z,51.212200
2022-09-01T08:25:08.839Z,51.212170
2022-09-01T08:26:08.635Z,51.212223
2022-09-01T08:27:08.700Z,51.212269
2022-09-01T08:28:08.654Z,51.212101
2022-09-01T08:29:08.626Z,51.212135
2022-09-01T08:30:52.493Z,51.212101
2022-09-01T08:31:11.179Z,51.212132
2022-09-01T08:32:09.654Z,51.212070
2022-09-01T08:33:11.650Z,51.212170
2022-09-01T08:34:09.621Z,51.212177
2022-09-01T08:35:09.390Z,51.212284
2022-09-01T08:36:08.588Z,51.212227
2022-09-01T08:37:08.593Z,51.212250
2022-09-01T08:38:08.626Z,51.212212
2022-09-01T08:39:08.559Z,51.212162
2022-09-01T08:40:08.586Z,51.212151
2022-09-01T08:41:08.541Z,51.212196
2022-09-01T08:42:08.648Z,51.212173
2022-09-01T08:43:13.200Z,51.212128
2022-09-01T08:44:09.542Z,51.212124
2022-09-01T08:45:08.538Z,51.212143
2022-09-01T08:46:08.558Z,51.212196
2022-09-01T08:47:13.618Z,51.212200
2022-09-01T08:49:02.697Z,51.212204
2022-09-01T08:49:24.656Z,51.212242
2022-09-01T08:50:10.490Z,51.212162
2022-09-01T08:51:14.108Z,51.212101
2022-09-01T08:52:10.477Z,51.212139
2022-09-01T08:53:09.717Z,51.212128
2022-09-01T08:54:09.491Z,51.212143
2022-09-01T08:55:08.442Z,51.212021
2022-09-01T08:56:08.593Z,51.212135
2022-09-01T08:57:08.431Z,51.212112
2022-09-01T08:58:09.788Z,51.211861
2022-09-01T08:59:08.465Z,51.212044
2022-09-01T09:00:08.420Z,51.212086
2022-09-01T09:01:08.514Z,51.212093
2022-09-01T09:02:09.336Z,51.212048
2022-09-01T09:03:08.816Z,51.212097
2022-09-01T09:04:08.404Z,51.212040
2022-09-01T09:05:15.919Z,51.212135
2022-09-01T09:06:10.400Z,51.212135
2022-09-01T09:07:08.381Z,51.212112
2022-09-01T09:08:08.368Z,51.212009
2022-09-01T09:09:08.375Z,51.212082
2022-09-01T09:10:08.376Z,51.212021
2022-09-01T09:11:08.384Z,51.212032
2022-09-01T09:12:08.704Z,51.212090
2022-09-01T09:13:10.224Z,51.212025
2022-09-01T09:14:08.369Z,51.212139
2022-09-01T09:15:08.376Z,51.212097
2022-09-01T09:16:08.853Z,51.212097
2022-09-01T09:17:09.364Z,51.212009
2022-09-01T09:18:20.268Z,51.212166
2022-09-01T09:19:09.328Z,51.212086
2022-09-01T09:20:09.279Z,51.212120
2022-09-01T09:21:08.333Z,51.212238
2022-09-01T09:22:08.359Z,51.212021
2022-09-01T09:23:08.521Z,51.212055
2022-09-01T09:24:08.343Z,51.212082
2022-09-01T09:25:08.372Z,51.212128
2022-09-01T09:26:08.431Z,51.212143
2022-09-01T09:27:09.725Z,51.212101
2022-09-01T09:28:08.286Z,51.212074
2022-09-01T09:29:08.275Z,51.212116
2022-09-01T09:30:11.178Z,51.211948
2022-09-01T09:31:09.308Z,51.212029
2022-09-01T09:32:22.486Z,51.211739
2022-09-01T09:33:44.293Z,51.211948
2022-09-01T09:34:10.835Z,51.212120
2022-09-01T09:35:08.260Z,51.212139
2022-09-01T09:36:08.245Z,51.212051
2022-09-01T09:37:08.236Z,51.211983
2022-09-01T09:38:08.358Z,51.212090
2022-09-01T09:39:08.243Z,51.212036
2022-09-01T09:40:10.072Z,51.211964
2022-09-01T09:41:18.816Z,51.212097
2022-09-01T09:42:10.249Z,51.212044
2022-09-01T09:43:08.211Z,51.212059
2022-09-01T09:44:11.280Z,51.212048
2022-09-01T09:45:09.917Z,51.212093
2022-09-01T09:46:23.414Z,51.212048
2022-09-01T09:47:27.287Z,51.212063
2022-09-01T09:48:10.989Z,51.212074
2022-09-01T09:49:08.160Z,51.212132
2022-09-01T09:50:08.150Z,51.211971
2022-09-01T09:51:08.198Z,51.212048
2022-09-01T09:52:08.206Z,51.212006
2022-09-01T09:53:08.142Z,51.212009
2022-09-01T09:54:08.119Z,51.212025
2022-09-01T09:55:09.122Z,51.211998
2022-09-01T09:56:08.134Z,51.212006
2022-09-01T09:57:08.137Z,51.211964
2022-09-01T09:58:08.106Z,51.211956
2022-09-01T09:59:08.101Z,51.212154
2022-09-01T10:00:08.101Z,51.212132
2022-09-01T10:01:08.165Z,51.211998
2022-09-01T10:02:08.118Z,51.212090
2022-09-01T10:03:10.227Z,51.211960
2022-09-01T10:04:08.294Z,51.211990
2022-09-01T10:05:08.075Z,51.211849
2022-09-01T10:06:08.070Z,51.211926
2022-09-01T10:07:08.065Z,51.211872
2022-09-01T10:08:08.048Z,51.211918
2022-09-01T10:09:08.104Z,51.212002
2022-09-01T10:10:09.037Z,51.212013
2022-09-01T10:11:08.287Z,51.212059
2022-09-01T10:12:08.711Z,51.212013
2022-09-01T10:13:08.006Z,51.212013
2022-09-01T10:14:08.055Z,51.212051
2022-09-01T10:15:12.735Z,51.212059
2022-09-01T10:16:09.418Z,51.212112
2022-09-01T10:17:09.108Z,51.212090
2022-09-01T10:18:28.991Z,51.212070
2022-09-01T10:19:12.585Z,51.212109
2022-09-01T10:20:07.986Z,51.212025
2022-09-01T10:21:07.961Z,51.212055
2022-09-01T10:22:08.036Z,51.212109
2022-09-01T10:23:14.867Z,51.212151
2022-09-01T10:24:26.993Z,51.212097
2022-09-01T10:25:10.838Z,51.212147
2022-09-01T10:26:09.552Z,51.212070
2022-09-01T10:27:14.296Z,51.212021
2022-09-01T10:28:09.983Z,51.212051
2022-09-01T10:29:08.402Z,51.212017
2022-09-01T10:30:19.162Z,51.211895
2022-09-01T10:31:09.972Z,51.212044
2022-09-01T10:32:31.396Z,51.212029
2022-09-01T10:33:19.286Z,51.212139
2022-09-01T10:34:09.899Z,51.212154
2022-09-01T10:35:07.906Z,51.212200
2022-09-01T10:36:08.032Z,51.212082
2022-09-01T10:37:10.546Z,51.211983
2022-09-01T10:38:08.881Z,51.212158
2022-09-01T10:39:09.173Z,51.212124
2022-09-01T10:40:08.937Z,51.212116
2022-09-01T10:41:08.842Z,51.212109
2022-09-01T10:42:08.844Z,51.212112
2022-09-01T10:43:12.434Z,51.212040
2022-09-01T10:44:07.847Z,51.212124
2022-09-01T10:45:07.863Z,51.212078
2022-09-01T10:46:09.141Z,51.212017
2022-09-01T10:47:13.594Z,51.212154
2022-09-01T10:48:13.037Z,51.212166
2022-09-01T10:49:08.240Z,51.212139
2022-09-01T10:50:10.017Z,51.212025
2022-09-01T10:51:08.828Z,51.211983
2022-09-01T10:52:13.239Z,51.212090
2022-09-01T10:53:09.803Z,51.212017
2022-09-01T10:54:08.349Z,51.212055
2022-09-01T10:55:07.817Z,51.212059
2022-09-01T10:56:18.774Z,51.212101
2022-09-01T10:57:12.287Z,51.212036
2022-09-01T10:59:29.891Z,51.212166
2022-09-01T11:00:34.754Z,51.212070
2022-09-01T11:01:11.195Z,51.212143
2022-09-01T11:02:27.558Z,51.212040
2022-09-01T11:04:10.326Z,51.211994
2022-09-01T11:05:07.744Z,51.212116
2022-09-01T11:06:14.881Z,51.212128
2022-09-01T11:07:12.881Z,51.212215
2022-09-01T11:08:15.826Z,51.212093
2022-09-01T11:09:09.713Z,51.212166
2022-09-01T11:10:11.377Z,51.212082
2022-09-01T11:11:09.699Z,51.211998
2022-09-01T11:12:07.689Z,51.212086
2022-09-01T11:13:07.658Z,51.212105
2022-09-01T11:14:09.420Z,51.212109
2022-09-01T11:15:07.662Z,51.212063
2022-09-01T11:16:07.701Z,51.212044
2022-09-01T11:17:07.801Z,51.212158
2022-09-01T11:18:08.478Z,51.212093
2022-09-01T11:19:14.015Z,51.212006
2022-09-01T11:20:09.617Z,51.212048
2022-09-01T11:21:08.605Z,51.211689
2022-09-01T11:22:07.604Z,51.211815
2022-09-01T11:23:07.592Z,51.211761
2022-09-01T11:24:07.667Z,51.212063
2022-09-01T11:25:12.134Z,51.212143
2022-09-01T11:26:23.951Z,51.212154
2022-09-01T11:27:09.593Z,51.212181
2022-09-01T11:28:07.557Z,51.212177
2022-09-01T11:29:07.566Z,51.212132
2022-09-01T11:30:08.450Z,51.212078
2022-09-01T11:31:09.044Z,51.212143
2022-09-01T11:32:07.661Z,51.212151
2022-09-01T11:33:07.641Z,51.212040
2022-09-01T11:34:07.540Z,51.211941
2022-09-01T11:35:07.564Z,51.211937
2022-09-01T11:36:07.557Z,51.212021
2022-09-01T11:37:07.739Z,51.212097
2022-09-01T11:38:07.550Z,51.212162
2022-09-01T11:39:07.503Z,51.212254
2022-09-01T11:40:07.584Z,51.212109
2022-09-01T11:41:07.523Z,51.211998
2022-09-01T11:42:08.464Z,51.211929
2022-09-01T11:43:09.729Z,51.212200
2022-09-01T11:44:08.478Z,51.212063
2022-09-01T11:45:07.478Z,51.211994
2022-09-01T11:46:07.500Z,51.212097
2022-09-01T11:47:12.008Z,51.212162